sensor_id;sensor_type;location;lat;lon;timestamp;P1;durP1;ratioP1;P2;durP2;ratioP2
26756;SDS011;23848;49.798;10.228;2023-06-19T00:01:22;10.63;;;8.30;;
26756;SDS011;23848;49.798;10.228;2023-06-19T00:03:50;9.23;;;7.10;;
26756;SDS011;23848;49.798;10.228;2023-06-19T00:06:19;8.38;;;6.80;;
26756;SDS011;23848;49.798;10.228;2023-06-19T00:08:48;11.38;;;8.25;;
26756;SDS011;23848;49.798;10.228;2023-06-19T00:11:17;12.25;;;8.18;;
26756;SDS011;23848;49.798;10.228;2023-06-19T00:13:45;8.32;;;7.40;;
26756;SDS011;23848;49.798;10.228;2023-06-19T00:16:13;9.93;;;8.38;;
26756;SDS011;23848;49.798;10.228;2023-06-19T00:18:42;11.52;;;8.30;;
26756;SDS011;23848;49.798;10.228;2023-06-19T00:21:10;9.95;;;8.02;;
26756;SDS011;23848;49.798;10.228;2023-06-19T00:23:38;9.50;;;8.13;;
26756;SDS011;23848;49.798;10.228;2023-06-19T00:26:08;10.70;;;8.15;;
26756;SDS011;23848;49.798;10.228;2023-06-19T00:28:37;9.13;;;7.45;;
26756;SDS011;23848;49.798;10.228;2023-06-19T00:31:07;10.93;;;8.43;;
26756;SDS011;23848;49.798;10.228;2023-06-19T00:33:36;10.27;;;8.05;;
26756;SDS011;23848;49.798;10.228;2023-06-19T00:36:08;10.25;;;8.35;;
26756;SDS011;23848;49.798;10.228;2023-06-19T00:38:39;9.20;;;7.82;;
26756;SDS011;23848;49.798;10.228;2023-06-19T00:41:08;10.48;;;7.63;;
26756;SDS011;23848;49.798;10.228;2023-06-19T00:43:37;10.88;;;8.57;;
26756;SDS011;23848;49.798;10.228;2023-06-19T00:46:05;12.23;;;10.15;;
26756;SDS011;23848;49.798;10.228;2023-06-19T00:48:34;11.85;;;8.70;;
26756;SDS011;23848;49.798;10.228;2023-06-19T00:51:02;11.05;;;8.30;;
26756;SDS011;23848;49.798;10.228;2023-06-19T00:53:31;9.23;;;7.88;;
26756;SDS011;23848;49.798;10.228;2023-06-19T00:56:01;9.40;;;8.13;;
26756;SDS011;23848;49.798;10.228;2023-06-19T00:58:31;9.40;;;8.13;;
26756;SDS011;23848;49.798;10.228;2023-06-19T01:00:59;10.02;;;7.70;;
26756;SDS011;23848;49.798;10.228;2023-06-19T01:03:34;9.57;;;7.97;;
26756;SDS011;23848;49.798;10.228;2023-06-19T01:06:03;11.98;;;8.70;;
26756;SDS011;23848;49.798;10.228;2023-06-19T01:08:38;11.43;;;7.55;;
26756;SDS011;23848;49.798;10.228;2023-06-19T01:11:09;9.65;;;7.80;;
26756;SDS011;23848;49.798;10.228;2023-06-19T01:13:53;12.68;;;8.15;;
26756;SDS011;23848;49.798;10.228;2023-06-19T01:16:24;8.80;;;7.47;;
26756;SDS011;23848;49.798;10.228;2023-06-19T01:18:52;9.25;;;7.63;;
26756;SDS011;23848;49.798;10.228;2023-06-19T01:21:21;8.70;;;7.43;;
26756;SDS011;23848;49.798;10.228;2023-06-19T01:23:50;9.13;;;8.07;;
26756;SDS011;23848;49.798;10.228;2023-06-19T01:26:20;9.95;;;7.90;;
26756;SDS011;23848;49.798;10.228;2023-06-19T01:28:54;10.55;;;8.05;;
26756;SDS011;23848;49.798;10.228;2023-06-19T01:31:25;11.07;;;8.93;;
26756;SDS011;23848;49.798;10.228;2023-06-19T01:33:55;9.38;;;8.00;;
26756;SDS011;23848;49.798;10.228;2023-06-19T01:36:23;10.77;;;7.97;;
26756;SDS011;23848;49.798;10.228;2023-06-19T01:38:54;12.80;;;9.15;;
26756;SDS011;23848;49.798;10.228;2023-06-19T01:41:23;11.77;;;8.27;;
26756;SDS011;23848;49.798;10.228;2023-06-19T01:43:52;8.77;;;7.85;;
26756;SDS011;23848;49.798;10.228;2023-06-19T01:46:21;9.32;;;8.05;;
26756;SDS011;23848;49.798;10.228;2023-06-19T01:48:49;10.60;;;8.25;;
26756;SDS011;23848;49.798;10.228;2023-06-19T01:51:18;8.75;;;7.68;;
26756;SDS011;23848;49.798;10.228;2023-06-19T01:53:46;9.32;;;7.60;;
26756;SDS011;23848;49.798;10.228;2023-06-19T01:56:16;9.82;;;8.45;;
26756;SDS011;23848;49.798;10.228;2023-06-19T01:58:44;9.35;;;8.02;;
26756;SDS011;23848;49.798;10.228;2023-06-19T02:01:13;9.80;;;7.60;;
26756;SDS011;23848;49.798;10.228;2023-06-19T02:03:41;9.18;;;7.88;;
26756;SDS011;23848;49.798;10.228;2023-06-19T02:06:09;11.07;;;7.78;;
26756;SDS011;23848;49.798;10.228;2023-06-19T02:08:38;9.73;;;8.15;;
26756;SDS011;23848;49.798;10.228;2023-06-19T02:11:06;11.98;;;9.30;;
26756;SDS011;23848;49.798;10.228;2023-06-19T02:13:36;11.65;;;8.70;;
26756;SDS011;23848;49.798;10.228;2023-06-19T02:16:05;11.10;;;8.65;;
26756;SDS011;23848;49.798;10.228;2023-06-19T02:18:34;9.25;;;8.30;;
26756;SDS011;23848;49.798;10.228;2023-06-19T02:21:02;11.25;;;8.75;;
26756;SDS011;23848;49.798;10.228;2023-06-19T02:23:31;10.23;;;8.38;;
26756;SDS011;23848;49.798;10.228;2023-06-19T02:25:59;10.10;;;8.52;;
26756;SDS011;23848;49.798;10.228;2023-06-19T02:28:27;10.32;;;8.48;;
26756;SDS011;23848;49.798;10.228;2023-06-19T02:30:57;11.65;;;9.18;;
26756;SDS011;23848;49.798;10.228;2023-06-19T02:33:25;13.20;;;9.40;;
26756;SDS011;23848;49.798;10.228;2023-06-19T02:35:54;10.45;;;8.73;;
26756;SDS011;23848;49.798;10.228;2023-06-19T02:38:25;11.23;;;8.98;;
26756;SDS011;23848;49.798;10.228;2023-06-19T02:40:55;11.82;;;9.70;;
26756;SDS011;23848;49.798;10.228;2023-06-19T02:43:26;12.60;;;8.82;;
26756;SDS011;23848;49.798;10.228;2023-06-19T02:45:56;10.32;;;9.15;;
26756;SDS011;23848;49.798;10.228;2023-06-19T02:48:24;10.93;;;9.40;;
26756;SDS011;23848;49.798;10.228;2023-06-19T02:50:53;11.00;;;9.52;;
26756;SDS011;23848;49.798;10.228;2023-06-19T02:53:21;9.85;;;8.77;;
26756;SDS011;23848;49.798;10.228;2023-06-19T02:55:50;11.65;;;9.07;;
26756;SDS011;23848;49.798;10.228;2023-06-19T02:58:18;10.07;;;8.82;;
26756;SDS011;23848;49.798;10.228;2023-06-19T03:00:49;12.38;;;9.68;;
26756;SDS011;23848;49.798;10.228;2023-06-19T03:03:18;11.60;;;9.60;;
26756;SDS011;23848;49.798;10.228;2023-06-19T03:05:47;11.38;;;9.30;;
26756;SDS011;23848;49.798;10.228;2023-06-19T03:08:15;11.15;;;9.68;;
26756;SDS011;23848;49.798;10.228;2023-06-19T03:10:43;11.48;;;9.77;;
26756;SDS011;23848;49.798;10.228;2023-06-19T03:13:12;12.23;;;9.45;;
26756;SDS011;23848;49.798;10.228;2023-06-19T03:15:40;14.02;;;9.98;;
26756;SDS011;23848;49.798;10.228;2023-06-19T03:18:09;12.55;;;9.15;;
26756;SDS011;23848;49.798;10.228;2023-06-19T03:20:38;11.98;;;9.75;;
26756;SDS011;23848;49.798;10.228;2023-06-19T03:23:07;11.55;;;9.35;;
26756;SDS011;23848;49.798;10.228;2023-06-19T03:25:35;12.75;;;10.40;;
26756;SDS011;23848;49.798;10.228;2023-06-19T03:28:07;10.18;;;8.52;;
26756;SDS011;23848;49.798;10.228;2023-06-19T03:30:35;10.25;;;8.02;;
26756;SDS011;23848;49.798;10.228;2023-06-19T03:33:03;11.73;;;8.50;;
26756;SDS011;23848;49.798;10.228;2023-06-19T03:35:32;11.68;;;7.97;;
26756;SDS011;23848;49.798;10.228;2023-06-19T03:38:01;8.57;;;7.10;;
26756;SDS011;23848;49.798;10.228;2023-06-19T03:40:30;8.80;;;6.95;;
26756;SDS011;23848;49.798;10.228;2023-06-19T03:42:58;9.13;;;6.80;;
26756;SDS011;23848;49.798;10.228;2023-06-19T03:45:27;13.35;;;8.40;;
26756;SDS011;23848;49.798;10.228;2023-06-19T03:47:56;8.13;;;6.72;;
26756;SDS011;23848;49.798;10.228;2023-06-19T03:50:25;10.18;;;7.20;;
26756;SDS011;23848;49.798;10.228;2023-06-19T03:52:54;12.10;;;7.45;;
26756;SDS011;23848;49.798;10.228;2023-06-19T03:55:23;9.68;;;7.03;;
26756;SDS011;23848;49.798;10.228;2023-06-19T03:57:52;8.57;;;6.90;;
26756;SDS011;23848;49.798;10.228;2023-06-19T04:00:20;10.93;;;8.05;;
26756;SDS011;23848;49.798;10.228;2023-06-19T04:02:49;8.82;;;6.80;;
26756;SDS011;23848;49.798;10.228;2023-06-19T04:05:17;8.20;;;7.25;;
26756;SDS011;23848;49.798;10.228;2023-06-19T04:07:46;9.55;;;6.95;;
26756;SDS011;23848;49.798;10.228;2023-06-19T04:10:15;10.57;;;7.72;;
26756;SDS011;23848;49.798;10.228;2023-06-19T04:12:44;9.18;;;7.35;;
26756;SDS011;23848;49.798;10.228;2023-06-19T04:15:14;8.68;;;6.93;;
26756;SDS011;23848;49.798;10.228;2023-06-19T04:17:42;9.50;;;7.18;;
26756;SDS011;23848;49.798;10.228;2023-06-19T04:20:11;10.27;;;7.38;;
26756;SDS011;23848;49.798;10.228;2023-06-19T04:22:39;12.05;;;7.43;;
26756;SDS011;23848;49.798;10.228;2023-06-19T04:25:08;8.40;;;7.03;;
26756;SDS011;23848;49.798;10.228;2023-06-19T04:27:37;9.70;;;7.00;;
26756;SDS011;23848;49.798;10.228;2023-06-19T04:30:07;8.48;;;6.72;;
26756;SDS011;23848;49.798;10.228;2023-06-19T04:32:35;7.85;;;6.78;;
26756;SDS011;23848;49.798;10.228;2023-06-19T04:35:07;9.05;;;7.13;;
26756;SDS011;23848;49.798;10.228;2023-06-19T04:37:36;9.38;;;7.03;;
26756;SDS011;23848;49.798;10.228;2023-06-19T04:40:05;9.73;;;7.38;;
26756;SDS011;23848;49.798;10.228;2023-06-19T04:42:34;7.95;;;6.65;;
26756;SDS011;23848;49.798;10.228;2023-06-19T04:45:07;8.65;;;6.88;;
26756;SDS011;23848;49.798;10.228;2023-06-19T04:47:35;9.38;;;7.20;;
26756;SDS011;23848;49.798;10.228;2023-06-19T04:50:18;13.48;;;7.43;;
26756;SDS011;23848;49.798;10.228;2023-06-19T04:52:48;9.15;;;7.15;;
26756;SDS011;23848;49.798;10.228;2023-06-19T04:55:18;7.68;;;6.50;;
26756;SDS011;23848;49.798;10.228;2023-06-19T04:57:46;8.88;;;7.30;;
26756;SDS011;23848;49.798;10.228;2023-06-19T05:00:16;11.35;;;7.35;;
26756;SDS011;23848;49.798;10.228;2023-06-19T05:02:46;11.10;;;7.25;;
26756;SDS011;23848;49.798;10.228;2023-06-19T05:05:14;12.30;;;7.38;;
26756;SDS011;23848;49.798;10.228;2023-06-19T05:07:43;9.05;;;6.95;;
26756;SDS011;23848;49.798;10.228;2023-06-19T05:10:12;9.45;;;6.65;;
26756;SDS011;23848;49.798;10.228;2023-06-19T05:12:41;8.10;;;6.78;;
26756;SDS011;23848;49.798;10.228;2023-06-19T05:15:09;10.43;;;6.90;;
26756;SDS011;23848;49.798;10.228;2023-06-19T05:17:41;9.95;;;6.85;;
26756;SDS011;23848;49.798;10.228;2023-06-19T05:20:13;9.27;;;7.22;;
26756;SDS011;23848;49.798;10.228;2023-06-19T05:22:41;11.23;;;7.43;;
26756;SDS011;23848;49.798;10.228;2023-06-19T05:25:10;8.43;;;6.55;;
26756;SDS011;23848;49.798;10.228;2023-06-19T05:27:38;7.40;;;6.53;;
26756;SDS011;23848;49.798;10.228;2023-06-19T05:30:07;8.38;;;6.65;;
26756;SDS011;23848;49.798;10.228;2023-06-19T05:32:35;8.30;;;6.47;;
26756;SDS011;23848;49.798;10.228;2023-06-19T05:35:05;12.40;;;7.45;;
26756;SDS011;23848;49.798;10.228;2023-06-19T05:37:34;14.15;;;8.35;;
26756;SDS011;23848;49.798;10.228;2023-06-19T05:40:04;11.70;;;7.72;;
26756;SDS011;23848;49.798;10.228;2023-06-19T05:42:33;9.82;;;6.95;;
26756;SDS011;23848;49.798;10.228;2023-06-19T05:45:01;13.35;;;7.88;;
26756;SDS011;23848;49.798;10.228;2023-06-19T05:47:29;9.60;;;6.90;;
26756;SDS011;23848;49.798;10.228;2023-06-19T05:49:58;10.98;;;7.05;;
26756;SDS011;23848;49.798;10.228;2023-06-19T05:52:27;8.55;;;6.75;;
26756;SDS011;23848;49.798;10.228;2023-06-19T05:54:56;10.05;;;7.43;;
26756;SDS011;23848;49.798;10.228;2023-06-19T05:57:25;8.73;;;6.60;;
26756;SDS011;23848;49.798;10.228;2023-06-19T05:59:53;8.80;;;6.85;;
26756;SDS011;23848;49.798;10.228;2023-06-19T06:02:22;8.90;;;7.22;;
26756;SDS011;23848;49.798;10.228;2023-06-19T06:04:50;10.02;;;6.50;;
26756;SDS011;23848;49.798;10.228;2023-06-19T06:07:18;9.95;;;7.22;;
26756;SDS011;23848;49.798;10.228;2023-06-19T06:09:48;9.27;;;7.25;;
26756;SDS011;23848;49.798;10.228;2023-06-19T06:12:16;8.15;;;6.75;;
26756;SDS011;23848;49.798;10.228;2023-06-19T06:14:44;12.00;;;7.55;;
26756;SDS011;23848;49.798;10.228;2023-06-19T06:17:13;15.55;;;8.30;;
26756;SDS011;23848;49.798;10.228;2023-06-19T06:19:41;20.08;;;8.00;;
26756;SDS011;23848;49.798;10.228;2023-06-19T06:22:11;15.70;;;7.80;;
26756;SDS011;23848;49.798;10.228;2023-06-19T06:24:39;13.10;;;7.38;;
26756;SDS011;23848;49.798;10.228;2023-06-19T06:27:09;16.58;;;7.13;;
26756;SDS011;23848;49.798;10.228;2023-06-19T06:29:38;16.92;;;8.20;;
26756;SDS011;23848;49.798;10.228;2023-06-19T06:32:06;12.65;;;6.93;;
26756;SDS011;23848;49.798;10.228;2023-06-19T06:34:35;14.55;;;6.70;;
26756;SDS011;23848;49.798;10.228;2023-06-19T06:37:03;11.32;;;6.07;;
26756;SDS011;23848;49.798;10.228;2023-06-19T06:39:32;9.52;;;6.20;;
26756;SDS011;23848;49.798;10.228;2023-06-19T06:42:00;9.55;;;6.32;;
26756;SDS011;23848;49.798;10.228;2023-06-19T06:44:31;11.88;;;6.30;;
26756;SDS011;23848;49.798;10.228;2023-06-19T06:46:59;6.60;;;5.80;;
26756;SDS011;23848;49.798;10.228;2023-06-19T06:49:27;7.28;;;5.57;;
26756;SDS011;23848;49.798;10.228;2023-06-19T06:51:56;11.40;;;5.63;;
26756;SDS011;23848;49.798;10.228;2023-06-19T06:54:24;9.35;;;6.38;;
26756;SDS011;23848;49.798;10.228;2023-06-19T06:56:52;10.80;;;6.15;;
26756;SDS011;23848;49.798;10.228;2023-06-19T06:59:23;7.68;;;5.82;;
26756;SDS011;23848;49.798;10.228;2023-06-19T07:01:53;8.75;;;6.18;;
26756;SDS011;23848;49.798;10.228;2023-06-19T07:04:22;7.30;;;5.65;;
26756;SDS011;23848;49.798;10.228;2023-06-19T07:06:51;7.22;;;5.63;;
26756;SDS011;23848;49.798;10.228;2023-06-19T07:09:19;6.20;;;5.22;;
26756;SDS011;23848;49.798;10.228;2023-06-19T07:11:48;9.32;;;4.70;;
26756;SDS011;23848;49.798;10.228;2023-06-19T07:14:19;7.13;;;5.68;;
26756;SDS011;23848;49.798;10.228;2023-06-19T07:16:48;6.32;;;5.00;;
26756;SDS011;23848;49.798;10.228;2023-06-19T07:19:18;6.55;;;5.00;;
26756;SDS011;23848;49.798;10.228;2023-06-19T07:21:46;5.80;;;4.40;;
26756;SDS011;23848;49.798;10.228;2023-06-19T07:24:15;6.68;;;4.70;;
26756;SDS011;23848;49.798;10.228;2023-06-19T07:26:43;6.30;;;4.38;;
26756;SDS011;23848;49.798;10.228;2023-06-19T07:29:13;6.53;;;4.80;;
26756;SDS011;23848;49.798;10.228;2023-06-19T07:31:41;5.82;;;4.30;;
26756;SDS011;23848;49.798;10.228;2023-06-19T07:34:10;6.72;;;4.35;;
26756;SDS011;23848;49.798;10.228;2023-06-19T07:36:39;5.85;;;4.07;;
26756;SDS011;23848;49.798;10.228;2023-06-19T07:39:08;5.70;;;3.80;;
26756;SDS011;23848;49.798;10.228;2023-06-19T07:41:38;5.28;;;4.22;;
26756;SDS011;23848;49.798;10.228;2023-06-19T07:44:06;6.80;;;4.32;;
26756;SDS011;23848;49.798;10.228;2023-06-19T07:46:34;5.65;;;4.47;;
26756;SDS011;23848;49.798;10.228;2023-06-19T07:49:03;5.65;;;4.22;;
26756;SDS011;23848;49.798;10.228;2023-06-19T07:51:31;6.30;;;4.32;;
26756;SDS011;23848;49.798;10.228;2023-06-19T07:54:01;5.80;;;4.05;;
26756;SDS011;23848;49.798;10.228;2023-06-19T07:56:29;7.22;;;4.25;;
26756;SDS011;23848;49.798;10.228;2023-06-19T07:58:58;7.07;;;4.00;;
26756;SDS011;23848;49.798;10.228;2023-06-19T08:01:28;5.60;;;3.97;;
26756;SDS011;23848;49.798;10.228;2023-06-19T08:03:57;12.77;;;4.32;;
26756;SDS011;23848;49.798;10.228;2023-06-19T08:06:25;5.72;;;3.58;;
26756;SDS011;23848;49.798;10.228;2023-06-19T08:08:54;6.10;;;4.05;;
26756;SDS011;23848;49.798;10.228;2023-06-19T08:11:23;5.15;;;3.75;;
26756;SDS011;23848;49.798;10.228;2023-06-19T08:13:52;7.22;;;3.83;;
26756;SDS011;23848;49.798;10.228;2023-06-19T08:16:20;11.32;;;4.60;;
26756;SDS011;23848;49.798;10.228;2023-06-19T08:18:48;8.00;;;3.75;;
26756;SDS011;23848;49.798;10.228;2023-06-19T08:21:16;9.23;;;4.00;;
26756;SDS011;23848;49.798;10.228;2023-06-19T08:23:47;10.55;;;4.20;;
26756;SDS011;23848;49.798;10.228;2023-06-19T08:26:15;5.78;;;3.83;;
26756;SDS011;23848;49.798;10.228;2023-06-19T08:28:45;8.20;;;3.70;;
26756;SDS011;23848;49.798;10.228;2023-06-19T08:31:14;10.00;;;3.47;;
26756;SDS011;23848;49.798;10.228;2023-06-19T08:33:43;7.80;;;3.40;;
26756;SDS011;23848;49.798;10.228;2023-06-19T08:36:11;5.55;;;3.25;;
26756;SDS011;23848;49.798;10.228;2023-06-19T08:38:39;5.10;;;3.42;;
26756;SDS011;23848;49.798;10.228;2023-06-19T08:41:08;5.32;;;3.13;;
26756;SDS011;23848;49.798;10.228;2023-06-19T08:43:36;4.70;;;3.10;;
26756;SDS011;23848;49.798;10.228;2023-06-19T08:46:09;5.00;;;2.90;;
26756;SDS011;23848;49.798;10.228;2023-06-19T08:48:38;5.25;;;3.17;;
26756;SDS011;23848;49.798;10.228;2023-06-19T08:51:07;6.05;;;3.42;;
26756;SDS011;23848;49.798;10.228;2023-06-19T08:53:43;29.05;;;6.03;;
26756;SDS011;23848;49.798;10.228;2023-06-19T08:56:12;7.95;;;3.58;;
26756;SDS011;23848;49.798;10.228;2023-06-19T08:58:40;4.78;;;3.40;;
26756;SDS011;23848;49.798;10.228;2023-06-19T09:01:10;5.55;;;3.00;;
26756;SDS011;23848;49.798;10.228;2023-06-19T09:03:39;4.40;;;3.20;;
26756;SDS011;23848;49.798;10.228;2023-06-19T09:06:08;6.82;;;3.08;;
26756;SDS011;23848;49.798;10.228;2023-06-19T09:08:36;8.95;;;3.90;;
26756;SDS011;23848;49.798;10.228;2023-06-19T09:11:05;7.82;;;3.42;;
26756;SDS011;23848;49.798;10.228;2023-06-19T09:13:36;15.52;;;4.75;;
26756;SDS011;23848;49.798;10.228;2023-06-19T09:16:05;7.22;;;3.30;;
26756;SDS011;23848;49.798;10.228;2023-06-19T09:18:43;5.80;;;3.47;;
26756;SDS011;23848;49.798;10.228;2023-06-19T09:21:14;4.55;;;3.25;;
26756;SDS011;23848;49.798;10.228;2023-06-19T09:23:44;5.78;;;3.33;;
26756;SDS011;23848;49.798;10.228;2023-06-19T09:26:13;6.00;;;3.10;;
26756;SDS011;23848;49.798;10.228;2023-06-19T09:28:44;5.68;;;3.13;;
26756;SDS011;23848;49.798;10.228;2023-06-19T09:31:12;5.60;;;3.55;;
26756;SDS011;23848;49.798;10.228;2023-06-19T09:33:40;5.15;;;3.20;;
26756;SDS011;23848;49.798;10.228;2023-06-19T09:36:11;6.72;;;3.55;;
26756;SDS011;23848;49.798;10.228;2023-06-19T09:38:39;5.60;;;3.20;;
26756;SDS011;23848;49.798;10.228;2023-06-19T09:41:08;4.53;;;3.30;;
26756;SDS011;23848;49.798;10.228;2023-06-19T09:43:39;5.82;;;3.42;;
26756;SDS011;23848;49.798;10.228;2023-06-19T09:46:09;6.70;;;3.77;;
26756;SDS011;23848;49.798;10.228;2023-06-19T09:48:40;6.88;;;3.53;;
26756;SDS011;23848;49.798;10.228;2023-06-19T09:51:10;8.88;;;3.78;;
26756;SDS011;23848;49.798;10.228;2023-06-19T09:53:41;7.43;;;4.00;;
26756;SDS011;23848;49.798;10.228;2023-06-19T09:56:12;5.85;;;4.10;;
26756;SDS011;23848;49.798;10.228;2023-06-19T09:58:41;8.93;;;3.92;;
26756;SDS011;23848;49.798;10.228;2023-06-19T10:01:09;5.20;;;3.88;;
26756;SDS011;23848;49.798;10.228;2023-06-19T10:03:39;5.97;;;3.72;;
26756;SDS011;23848;49.798;10.228;2023-06-19T10:06:12;5.07;;;4.00;;
26756;SDS011;23848;49.798;10.228;2023-06-19T10:08:43;5.13;;;3.60;;
26756;SDS011;23848;49.798;10.228;2023-06-19T10:11:11;7.13;;;3.88;;
26756;SDS011;23848;49.798;10.228;2023-06-19T10:13:40;7.40;;;3.92;;
26756;SDS011;23848;49.798;10.228;2023-06-19T10:16:19;5.10;;;4.03;;
26756;SDS011;23848;49.798;10.228;2023-06-19T10:18:47;5.07;;;3.90;;
26756;SDS011;23848;49.798;10.228;2023-06-19T10:21:16;5.18;;;4.38;;
26756;SDS011;23848;49.798;10.228;2023-06-19T10:23:53;5.90;;;4.38;;
26756;SDS011;23848;49.798;10.228;2023-06-19T10:26:30;5.78;;;4.32;;
26756;SDS011;23848;49.798;10.228;2023-06-19T10:28:59;5.15;;;4.60;;
26756;SDS011;23848;49.798;10.228;2023-06-19T10:31:27;5.00;;;4.45;;
26756;SDS011;23848;49.798;10.228;2023-06-19T10:33:56;6.38;;;4.95;;
26756;SDS011;23848;49.798;10.228;2023-06-19T10:36:24;5.70;;;4.20;;
26756;SDS011;23848;49.798;10.228;2023-06-19T10:38:54;5.50;;;4.45;;
26756;SDS011;23848;49.798;10.228;2023-06-19T10:41:22;7.72;;;4.57;;
26756;SDS011;23848;49.798;10.228;2023-06-19T10:43:52;5.57;;;4.40;;
26756;SDS011;23848;49.798;10.228;2023-06-19T10:46:23;7.35;;;4.65;;
26756;SDS011;23848;49.798;10.228;2023-06-19T10:48:51;8.05;;;4.80;;
26756;SDS011;23848;49.798;10.228;2023-06-19T10:51:22;5.70;;;4.65;;
26756;SDS011;23848;49.798;10.228;2023-06-19T10:53:53;6.13;;;5.18;;
26756;SDS011;23848;49.798;10.228;2023-06-19T10:56:23;6.95;;;5.10;;
26756;SDS011;23848;49.798;10.228;2023-06-19T10:58:56;6.35;;;5.13;;
26756;SDS011;23848;49.798;10.228;2023-06-19T11:01:33;5.40;;;4.35;;
26756;SDS011;23848;49.798;10.228;2023-06-19T11:04:02;5.57;;;4.95;;
26756;SDS011;23848;49.798;10.228;2023-06-19T11:06:31;7.82;;;5.07;;
26756;SDS011;23848;49.798;10.228;2023-06-19T11:09:02;5.80;;;4.97;;
26756;SDS011;23848;49.798;10.228;2023-06-19T11:11:36;6.88;;;4.97;;
26756;SDS011;23848;49.798;10.228;2023-06-19T11:14:05;8.38;;;5.05;;
26756;SDS011;23848;49.798;10.228;2023-06-19T11:16:33;6.65;;;5.43;;
26756;SDS011;23848;49.798;10.228;2023-06-19T11:19:02;5.53;;;4.47;;
26756;SDS011;23848;49.798;10.228;2023-06-19T11:21:30;5.68;;;4.60;;
26756;SDS011;23848;49.798;10.228;2023-06-19T11:24:01;6.68;;;5.30;;
26756;SDS011;23848;49.798;10.228;2023-06-19T11:26:29;6.78;;;4.55;;
26756;SDS011;23848;49.798;10.228;2023-06-19T11:28:59;9.02;;;4.72;;
26756;SDS011;23848;49.798;10.228;2023-06-19T11:31:27;5.88;;;4.65;;
26756;SDS011;23848;49.798;10.228;2023-06-19T11:33:56;4.95;;;4.45;;
26756;SDS011;23848;49.798;10.228;2023-06-19T11:36:24;6.63;;;5.07;;
26756;SDS011;23848;49.798;10.228;2023-06-19T11:38:53;5.38;;;4.80;;
26756;SDS011;23848;49.798;10.228;2023-06-19T11:41:24;5.88;;;4.82;;
26756;SDS011;23848;49.798;10.228;2023-06-19T11:44:02;11.68;;;5.10;;
26756;SDS011;23848;49.798;10.228;2023-06-19T11:46:31;7.68;;;5.55;;
26756;SDS011;23848;49.798;10.228;2023-06-19T11:49:09;6.70;;;5.22;;
26756;SDS011;23848;49.798;10.228;2023-06-19T11:51:38;6.93;;;4.65;;
26756;SDS011;23848;49.798;10.228;2023-06-19T11:54:07;7.03;;;5.15;;
26756;SDS011;23848;49.798;10.228;2023-06-19T11:56:35;7.78;;;5.50;;
26756;SDS011;23848;49.798;10.228;2023-06-19T11:59:05;5.82;;;5.20;;
26756;SDS011;23848;49.798;10.228;2023-06-19T12:01:35;6.10;;;5.22;;
26756;SDS011;23848;49.798;10.228;2023-06-19T12:04:03;7.68;;;4.85;;
26756;SDS011;23848;49.798;10.228;2023-06-19T12:06:32;12.13;;;5.30;;
26756;SDS011;23848;49.798;10.228;2023-06-19T12:09:01;10.85;;;5.00;;
26756;SDS011;23848;49.798;10.228;2023-06-19T12:11:31;7.05;;;4.97;;
26756;SDS011;23848;49.798;10.228;2023-06-19T12:14:00;8.40;;;5.55;;
26756;SDS011;23848;49.798;10.228;2023-06-19T12:16:29;8.70;;;4.90;;
26756;SDS011;23848;49.798;10.228;2023-06-19T12:18:58;8.20;;;6.00;;
26756;SDS011;23848;49.798;10.228;2023-06-19T12:21:26;8.32;;;5.43;;
26756;SDS011;23848;49.798;10.228;2023-06-19T12:24:03;5.53;;;4.70;;
26756;SDS011;23848;49.798;10.228;2023-06-19T12:26:31;5.97;;;4.57;;
26756;SDS011;23848;49.798;10.228;2023-06-19T12:29:03;6.40;;;4.93;;
26756;SDS011;23848;49.798;10.228;2023-06-19T12:31:33;5.75;;;4.93;;
26756;SDS011;23848;49.798;10.228;2023-06-19T12:34:03;5.68;;;5.07;;
26756;SDS011;23848;49.798;10.228;2023-06-19T12:36:52;6.88;;;4.75;;
26756;SDS011;23848;49.798;10.228;2023-06-19T12:39:23;6.72;;;5.28;;
26756;SDS011;23848;49.798;10.228;2023-06-19T12:41:52;6.15;;;5.25;;
26756;SDS011;23848;49.798;10.228;2023-06-19T12:44:21;6.35;;;4.80;;
26756;SDS011;23848;49.798;10.228;2023-06-19T12:46:51;6.35;;;5.22;;
26756;SDS011;23848;49.798;10.228;2023-06-19T12:49:20;7.75;;;5.20;;
26756;SDS011;23848;49.798;10.228;2023-06-19T12:51:48;5.57;;;4.57;;
26756;SDS011;23848;49.798;10.228;2023-06-19T12:54:18;6.57;;;4.78;;
26756;SDS011;23848;49.798;10.228;2023-06-19T12:56:47;5.55;;;4.50;;
26756;SDS011;23848;49.798;10.228;2023-06-19T12:59:17;6.88;;;5.22;;
26756;SDS011;23848;49.798;10.228;2023-06-19T13:01:45;6.57;;;5.10;;
26756;SDS011;23848;49.798;10.228;2023-06-19T13:04:15;7.90;;;4.70;;
26756;SDS011;23848;49.798;10.228;2023-06-19T13:06:44;6.90;;;4.85;;
26756;SDS011;23848;49.798;10.228;2023-06-19T13:09:12;7.30;;;4.95;;
26756;SDS011;23848;49.798;10.228;2023-06-19T13:11:40;5.70;;;4.90;;
26756;SDS011;23848;49.798;10.228;2023-06-19T13:14:09;5.00;;;4.40;;
26756;SDS011;23848;49.798;10.228;2023-06-19T13:16:40;5.82;;;4.32;;
26756;SDS011;23848;49.798;10.228;2023-06-19T13:19:12;5.82;;;5.05;;
26756;SDS011;23848;49.798;10.228;2023-06-19T13:21:42;5.45;;;4.70;;
26756;SDS011;23848;49.798;10.228;2023-06-19T13:24:11;6.82;;;5.22;;
26756;SDS011;23848;49.798;10.228;2023-06-19T13:26:39;5.22;;;4.70;;
26756;SDS011;23848;49.798;10.228;2023-06-19T13:29:07;5.55;;;4.65;;
26756;SDS011;23848;49.798;10.228;2023-06-19T13:31:36;7.22;;;5.38;;
26756;SDS011;23848;49.798;10.228;2023-06-19T13:34:04;5.38;;;4.43;;
26756;SDS011;23848;49.798;10.228;2023-06-19T13:36:33;4.80;;;4.28;;
26756;SDS011;23848;49.798;10.228;2023-06-19T13:39:02;5.97;;;4.22;;
26756;SDS011;23848;49.798;10.228;2023-06-19T13:41:31;6.50;;;4.50;;
26756;SDS011;23848;49.798;10.228;2023-06-19T13:44:00;10.80;;;4.32;;
26756;SDS011;23848;49.798;10.228;2023-06-19T13:46:29;9.30;;;4.80;;
26756;SDS011;23848;49.798;10.228;2023-06-19T13:48:58;6.78;;;4.70;;
26756;SDS011;23848;49.798;10.228;2023-06-19T13:51:27;5.70;;;4.70;;
26756;SDS011;23848;49.798;10.228;2023-06-19T13:53:55;7.30;;;4.22;;
26756;SDS011;23848;49.798;10.228;2023-06-19T13:56:25;26.92;;;6.18;;
26756;SDS011;23848;49.798;10.228;2023-06-19T13:58:53;7.15;;;4.63;;
26756;SDS011;23848;49.798;10.228;2023-06-19T14:01:22;6.80;;;4.88;;
26756;SDS011;23848;49.798;10.228;2023-06-19T14:03:51;5.55;;;4.95;;
26756;SDS011;23848;49.798;10.228;2023-06-19T14:06:20;4.78;;;4.28;;
26756;SDS011;23848;49.798;10.228;2023-06-19T14:08:49;5.10;;;4.03;;
26756;SDS011;23848;49.798;10.228;2023-06-19T14:11:17;4.63;;;4.05;;
26756;SDS011;23848;49.798;10.228;2023-06-19T14:13:47;13.48;;;5.47;;
26756;SDS011;23848;49.798;10.228;2023-06-19T14:16:16;12.63;;;4.63;;
26756;SDS011;23848;49.798;10.228;2023-06-19T14:18:44;4.63;;;4.07;;
26756;SDS011;23848;49.798;10.228;2023-06-19T14:21:12;6.47;;;4.85;;
26756;SDS011;23848;49.798;10.228;2023-06-19T14:23:41;4.97;;;4.28;;
26756;SDS011;23848;49.798;10.228;2023-06-19T14:26:10;4.90;;;4.40;;
26756;SDS011;23848;49.798;10.228;2023-06-19T14:28:39;6.60;;;4.30;;
26756;SDS011;23848;49.798;10.228;2023-06-19T14:31:08;5.28;;;4.28;;
26756;SDS011;23848;49.798;10.228;2023-06-19T14:33:37;4.88;;;3.97;;
26756;SDS011;23848;49.798;10.228;2023-06-19T14:36:05;5.22;;;4.03;;
26756;SDS011;23848;49.798;10.228;2023-06-19T14:38:34;4.60;;;3.88;;
26756;SDS011;23848;49.798;10.228;2023-06-19T14:41:02;5.90;;;4.40;;
26756;SDS011;23848;49.798;10.228;2023-06-19T14:43:30;6.03;;;4.53;;